Time;durP1;ratioP1;P1;durP2;ratioP2;P2;SDS_P1;SDS_P2;PMS_P1;PMS_P2;Temp;Humidity;BMP_temperature;BMP_pressure;BME280_temperature;BME280_humidity;BME280_pressure;Samples;Min_cycle;Max_cycle;Signal;HPM_P1;HPM_P2
2021/05/07 00:01:29;;;;;;;1.20;0.60;;;21.00;45.70;;;;;;4989516;28;20424;-66
2021/05/07 00:03:55;;;;;;;2.60;0.80;;;20.90;45.40;;;;;;4982752;28;20510;-67
2021/05/07 00:06:21;;;;;;;0.80;0.80;;;20.90;45.80;;;;;;4972126;28;20420;-66
2021/05/07 00:08:47;;;;;;;0.80;0.80;;;20.90;45.80;;;;;;4977027;28;20426;-67
2021/05/07 00:11:15;;;;;;;1.07;0.83;;;20.90;45.40;;;;;;4993312;28;20421;-67
2021/05/07 00:13:41;;;;;;;1.85;0.88;;;20.90;46.00;;;;;;5002745;28;20420;-65
2021/05/07 00:16:08;;;;;;;1.20;1.10;;;20.90;45.90;;;;;;4991119;28;20802;-65
2021/05/07 00:18:34;;;;;;;1.30;0.70;;;20.90;45.60;;;;;;4989068;28;20414;-66
2021/05/07 00:21:00;;;;;;;1.33;0.90;;;20.90;45.70;;;;;;5008330;28;20423;-67
2021/05/07 00:23:26;;;;;;;1.27;0.90;;;20.90;45.40;;;;;;4994975;28;20494;-67
2021/05/07 00:25:52;;;;;;;3.30;0.80;;;21.00;45.60;;;;;;4994787;28;20416;-67
2021/05/07 00:28:19;;;;;;;0.68;0.60;;;21.00;45.80;;;;;;4996377;28;21082;-67
2021/05/07 00:30:45;;;;;;;0.80;0.80;;;21.00;45.50;;;;;;4995692;28;20910;-66
2021/05/07 00:33:12;;;;;;;0.90;0.90;;;21.00;45.20;;;;;;5003104;28;20414;-66
2021/05/07 00:35:38;;;;;;;1.20;0.82;;;21.00;45.20;;;;;;4999939;28;20800;-66
2021/05/07 00:38:05;;;;;;;0.67;0.67;;;21.00;45.60;;;;;;5004926;28;20854;-67
2021/05/07 00:40:31;;;;;;;0.80;0.80;;;21.00;45.70;;;;;;4998281;28;20413;-67
2021/05/07 00:42:57;;;;;;;0.80;0.65;;;20.90;45.70;;;;;;4995610;28;20431;-66
2021/05/07 00:45:23;;;;;;;1.60;0.70;;;20.90;45.60;;;;;;4999617;28;20944;-66
2021/05/07 00:47:52;;;;;;;1.20;0.70;;;20.90;45.70;;;;;;4997574;28;20816;-67
2021/05/07 00:50:19;;;;;;;0.80;0.77;;;20.90;45.40;;;;;;4985773;28;20439;-67
2021/05/07 00:52:45;;;;;;;1.40;0.90;;;20.90;45.30;;;;;;4979745;28;20401;-66
2021/05/07 00:55:12;;;;;;;0.90;0.60;;;20.90;45.30;;;;;;4996603;28;20789;-67
2021/05/07 00:57:38;;;;;;;1.90;0.80;;;20.90;45.60;;;;;;5002078;28;20421;-67
2021/05/07 01:00:06;;;;;;;1.40;0.70;;;20.90;45.20;;;;;;4997242;28;21517;-66
2021/05/07 01:02:32;;;;;;;1.00;0.70;;;21.00;45.40;;;;;;5001845;28;20423;-66
2021/05/07 01:04:58;;;;;;;0.60;0.60;;;21.00;45.30;;;;;;4994073;28;20488;-67
2021/05/07 01:07:26;;;;;;;1.03;0.83;;;21.00;45.20;;;;;;4985349;28;20432;-66
2021/05/07 01:09:52;;;;;;;0.70;0.70;;;21.00;45.70;;;;;;4995049;28;20985;-66
2021/05/07 01:12:18;;;;;;;2.20;0.80;;;20.90;45.40;;;;;;4995276;28;20411;-66
2021/05/07 01:14:57;;;;;;;2.40;1.00;;;20.90;45.20;;;;;;4989326;28;20495;-66
2021/05/07 01:17:23;;;;;;;0.73;0.73;;;20.90;45.70;;;;;;4994593;28;20422;-65
2021/05/07 01:19:49;;;;;;;2.20;1.00;;;20.90;45.50;;;;;;4995800;28;20450;-65
2021/05/07 01:22:16;;;;;;;0.60;0.60;;;20.90;45.60;;;;;;4989544;28;20419;-66
2021/05/07 01:24:42;;;;;;;2.70;1.05;;;20.90;45.40;;;;;;5005974;28;20477;-67
2021/05/07 01:27:08;;;;;;;0.65;0.60;;;20.90;45.30;;;;;;4991046;28;20480;-66
2021/05/07 01:29:34;;;;;;;0.73;0.60;;;20.90;45.50;;;;;;4990292;28;20406;-68
2021/05/07 01:32:00;;;;;;;1.40;0.90;;;21.00;45.20;;;;;;4971224;28;20473;-67
2021/05/07 01:34:26;;;;;;;0.80;0.70;;;21.00;45.40;;;;;;4998517;28;20432;-67
2021/05/07 01:36:52;;;;;;;0.60;0.60;;;21.00;45.00;;;;;;4998719;28;20498;-66
2021/05/07 01:39:19;;;;;;;0.70;0.70;;;21.00;45.20;;;;;;4998819;28;20460;-66
2021/05/07 01:41:46;;;;;;;1.10;0.70;;;21.00;45.20;;;;;;4984563;28;20420;-66
2021/05/07 01:44:12;;;;;;;0.82;0.82;;;21.00;45.30;;;;;;4995487;28;20420;-66
2021/05/07 01:46:38;;;;;;;0.68;0.68;;;21.00;45.20;;;;;;4981696;28;20472;-65
2021/05/07 01:49:04;;;;;;;0.90;0.90;;;20.90;44.90;;;;;;4994618;28;20484;-66
2021/05/07 01:51:30;;;;;;;0.70;0.70;;;20.90;45.40;;;;;;4996014;28;20419;-66
2021/05/07 01:53:56;;;;;;;0.60;0.60;;;20.90;45.50;;;;;;4996190;28;20437;-67
2021/05/07 01:56:23;;;;;;;1.50;0.80;;;20.90;45.50;;;;;;4998518;28;20441;-65
2021/05/07 01:58:49;;;;;;;1.00;0.70;;;20.90;45.60;;;;;;4998551;28;20424;-68
2021/05/07 02:01:15;;;;;;;1.10;1.00;;;20.90;45.30;;;;;;5000043;28;21343;-67
2021/05/07 02:03:42;;;;;;;0.90;0.70;;;20.90;45.60;;;;;;4998281;28;20420;-67
2021/05/07 02:06:08;;;;;;;1.13;0.70;;;20.90;45.70;;;;;;4999653;28;20415;-66
2021/05/07 02:08:34;;;;;;;0.70;0.70;;;20.90;45.60;;;;;;4984991;28;20417;-66
2021/05/07 02:11:00;;;;;;;0.98;0.77;;;20.90;45.40;;;;;;4985533;28;20544;-67
2021/05/07 02:13:27;;;;;;;1.50;0.90;;;20.90;45.20;;;;;;4961655;28;20538;-65
2021/05/07 02:15:53;;;;;;;1.00;1.00;;;20.90;45.40;;;;;;4998272;28;20419;-66
2021/05/07 02:18:19;;;;;;;1.35;1.00;;;20.90;45.40;;;;;;4999660;28;20417;-67
2021/05/07 02:20:47;;;;;;;1.52;0.60;;;20.90;45.40;;;;;;4985830;28;20540;-66
2021/05/07 02:23:14;;;;;;;0.97;0.90;;;20.90;45.40;;;;;;4986529;28;20419;-67
2021/05/07 02:25:40;;;;;;;1.13;0.80;;;20.90;45.10;;;;;;5002110;28;20475;-66
2021/05/07 02:28:07;;;;;;;1.30;0.90;;;21.00;45.10;;;;;;4999975;28;20426;-66
2021/05/07 02:30:34;;;;;;;1.20;1.00;;;21.00;45.20;;;;;;4997447;28;21004;-67
2021/05/07 02:33:00;;;;;;;0.80;0.80;;;21.00;45.20;;;;;;4990461;28;20528;-66
2021/05/07 02:35:27;;;;;;;1.00;0.90;;;21.00;45.20;;;;;;4997227;28;20411;-66
2021/05/07 02:37:54;;;;;;;1.00;0.70;;;21.00;45.20;;;;;;5001875;28;20490;-66
2021/05/07 02:40:20;;;;;;;1.80;0.80;;;20.90;45.10;;;;;;5002505;28;20463;-65
2021/05/07 02:42:46;;;;;;;1.20;0.70;;;20.90;45.10;;;;;;4996865;28;20418;-67
2021/05/07 02:45:13;;;;;;;1.60;0.80;;;20.90;45.50;;;;;;4993548;28;20913;-66
2021/05/07 02:47:41;;;;;;;0.80;0.80;;;20.90;45.20;;;;;;5007929;28;20417;-67
2021/05/07 02:50:08;;;;;;;0.90;0.70;;;20.90;45.10;;;;;;4992230;28;20899;-66
2021/05/07 02:52:35;;;;;;;1.15;0.65;;;20.80;45.30;;;;;;4992693;28;20437;-66
2021/05/07 02:55:02;;;;;;;1.27;0.80;;;20.80;46.40;;;;;;4995297;28;20491;-67
2021/05/07 02:57:28;;;;;;;1.03;0.90;;;20.90;45.60;;;;;;4992314;28;20443;-66
2021/05/07 02:59:54;;;;;;;1.70;1.00;;;20.90;45.60;;;;;;4994357;28;20409;-66
2021/05/07 03:02:20;;;;;;;0.82;0.70;;;20.80;45.30;;;;;;4992886;28;20420;-67
2021/05/07 03:04:47;;;;;;;1.30;0.90;;;20.80;45.20;;;;;;4999814;28;20409;-66
2021/05/07 03:07:13;;;;;;;2.17;0.73;;;20.90;45.70;;;;;;4984444;28;20438;-66
2021/05/07 03:09:39;;;;;;;0.90;0.75;;;20.90;45.40;;;;;;4987677;28;20822;-66
2021/05/07 03:12:06;;;;;;;1.40;0.90;;;20.90;45.40;;;;;;4997063;28;20424;-67
2021/05/07 03:14:32;;;;;;;1.15;0.80;;;20.90;45.50;;;;;;4998442;28;20439;-66
2021/05/07 03:16:59;;;;;;;0.90;0.80;;;21.00;45.40;;;;;;4997409;28;20424;-67
2021/05/07 03:19:25;;;;;;;1.50;0.80;;;21.00;45.40;;;;;;4996025;28;20482;-66
2021/05/07 03:21:52;;;;;;;0.83;0.60;;;21.10;45.40;;;;;;4992975;28;20420;-71
2021/05/07 03:24:18;;;;;;;1.50;0.90;;;21.00;45.40;;;;;;4996155;28;20482;-69
2021/05/07 03:26:44;;;;;;;0.90;0.77;;;21.00;45.30;;;;;;4995043;28;20816;-69
2021/05/07 03:29:10;;;;;;;1.00;0.90;;;21.10;45.50;;;;;;4995614;28;20434;-70
2021/05/07 03:31:36;;;;;;;0.70;0.70;;;21.10;45.40;;;;;;4996349;28;20425;-70
2021/05/07 03:34:03;;;;;;;1.40;0.80;;;21.10;45.30;;;;;;4997985;28;20417;-70
2021/05/07 03:36:29;;;;;;;1.10;0.70;;;21.20;45.20;;;;;;4997449;28;20428;-70
2021/05/07 03:38:56;;;;;;;1.20;0.80;;;21.20;45.10;;;;;;4997616;28;20548;-71
2021/05/07 03:41:22;;;;;;;0.70;0.70;;;21.20;45.10;;;;;;4995347;28;21666;-69
2021/05/07 03:43:48;;;;;;;0.90;0.90;;;21.30;44.70;;;;;;4997877;28;20479;-70
2021/05/07 03:46:15;;;;;;;0.95;0.70;;;21.30;45.00;;;;;;4997168;28;20432;-70
2021/05/07 03:48:41;;;;;;;1.38;0.80;;;21.30;44.70;;;;;;4996690;28;20408;-71
2021/05/07 03:51:07;;;;;;;0.80;0.60;;;21.20;45.10;;;;;;4992105;28;20426;-72
2021/05/07 03:53:33;;;;;;;1.38;0.60;;;21.20;44.80;;;;;;4998336;28;20428;-72
2021/05/07 03:56:00;;;;;;;0.88;0.70;;;21.20;45.10;;;;;;4996406;28;20554;-72
2021/05/07 03:58:26;;;;;;;2.00;0.70;;;21.20;45.20;;;;;;4997446;28;20421;-69
2021/05/07 04:00:52;;;;;;;0.77;0.63;;;21.20;45.20;;;;;;4989307;28;20429;-69
2021/05/07 04:03:18;;;;;;;2.10;0.70;;;21.10;45.30;;;;;;5002287;28;20428;-70
2021/05/07 04:05:48;;;;;;;0.80;0.60;;;21.10;45.30;;;;;;4994477;28;20417;-69
2021/05/07 04:08:17;;;;;;;1.00;0.70;;;21.10;45.40;;;;;;4971512;28;20862;-69
2021/05/07 04:10:44;;;;;;;0.52;0.50;;;21.10;45.50;;;;;;4995159;28;20912;-70
2021/05/07 04:13:33;;;;;;;1.30;0.80;;;21.10;45.50;;;;;;4997750;28;20550;-68
2021/05/07 04:15:59;;;;;;;1.00;0.70;;;21.10;45.40;;;;;;4995181;28;21517;-68
2021/05/07 04:18:25;;;;;;;1.10;0.60;;;21.10;45.30;;;;;;4998500;28;20415;-69
2021/05/07 04:20:51;;;;;;;0.88;0.88;;;21.20;45.30;;;;;;4985889;28;20406;-71
2021/05/07 04:23:18;;;;;;;0.50;0.50;;;21.20;45.20;;;;;;4994740;28;20424;-70
2021/05/07 04:25:44;;;;;;;0.63;0.50;;;21.20;45.10;;;;;;4996382;28;20428;-70
2021/05/07 04:28:11;;;;;;;0.80;0.50;;;21.30;45.20;;;;;;4996843;28;20821;-70
2021/05/07 04:30:37;;;;;;;0.63;0.60;;;21.30;44.80;;;;;;4996972;28;20416;-70
2021/05/07 04:33:03;;;;;;;0.80;0.60;;;21.30;45.20;;;;;;4997559;28;20420;-69
2021/05/07 04:35:30;;;;;;;1.20;0.90;;;21.30;45.20;;;;;;4998631;28;21097;-72
2021/05/07 04:37:56;;;;;;;0.70;0.70;;;21.30;45.20;;;;;;4997183;28;20417;-72
2021/05/07 04:40:22;;;;;;;0.90;0.83;;;21.30;44.90;;;;;;4988538;28;20413;-70
2021/05/07 04:42:48;;;;;;;0.70;0.70;;;21.30;44.90;;;;;;4995457;28;20803;-70
2021/05/07 04:45:15;;;;;;;0.65;0.50;;;21.40;45.00;;;;;;4997399;28;20947;-70
2021/05/07 04:47:41;;;;;;;1.30;0.70;;;21.40;44.90;;;;;;4989904;28;20448;-68
2021/05/07 04:50:10;;;;;;;0.52;0.50;;;21.40;45.80;;;;;;4993975;28;20832;-67
2021/05/07 04:52:36;;;;;;;0.60;0.60;;;21.40;45.00;;;;;;4994935;28;20473;-68
2021/05/07 04:55:02;;;;;;;0.80;0.60;;;21.40;44.70;;;;;;4996760;28;20421;-70
2021/05/07 04:57:29;;;;;;;0.52;0.52;;;21.40;45.80;;;;;;4993926;28;20416;-67
2021/05/07 04:59:55;;;;;;;1.90;0.80;;;21.30;44.80;;;;;;4993639;28;20405;-71
2021/05/07 05:02:22;;;;;;;0.70;0.70;;;21.30;45.80;;;;;;4995864;28;20841;-68
2021/05/07 05:04:48;;;;;;;1.50;0.60;;;21.30;44.80;;;;;;4995299;28;20897;-69
2021/05/07 05:07:14;;;;;;;1.30;0.60;;;21.30;44.90;;;;;;4987589;28;20467;-69
2021/05/07 05:09:40;;;;;;;0.70;0.70;;;21.20;45.00;;;;;;4988869;28;20463;-70
2021/05/07 05:12:07;;;;;;;1.00;0.60;;;21.20;45.00;;;;;;4990990;28;20413;-70
2021/05/07 05:14:33;;;;;;;0.90;0.60;;;21.20;45.10;;;;;;4994733;28;20423;-71
2021/05/07 05:16:59;;;;;;;1.20;0.50;;;21.20;45.20;;;;;;4996589;28;20773;-69
2021/05/07 05:19:26;;;;;;;0.80;0.70;;;21.20;45.20;;;;;;4995665;28;21158;-69
2021/05/07 05:21:52;;;;;;;0.60;0.50;;;21.20;45.20;;;;;;4996060;28;20480;-66
2021/05/07 05:24:19;;;;;;;0.90;0.60;;;21.20;45.10;;;;;;5004241;28;20406;-67
2021/05/07 05:26:45;;;;;;;0.60;0.60;;;21.20;45.20;;;;;;4998598;28;20863;-68
2021/05/07 05:29:12;;;;;;;1.20;0.70;;;21.30;45.10;;;;;;5001301;28;20496;-69
2021/05/07 05:31:39;;;;;;;0.80;0.50;;;21.30;45.10;;;;;;4970502;28;20434;-68
2021/05/07 05:34:05;;;;;;;0.60;0.60;;;21.30;45.10;;;;;;4999702;28;20536;-69
2021/05/07 05:36:32;;;;;;;1.38;0.70;;;21.30;45.10;;;;;;4998744;28;20850;-68
2021/05/07 05:38:58;;;;;;;1.20;0.60;;;21.30;44.90;;;;;;4998282;28;20425;-70
2021/05/07 05:41:24;;;;;;;0.70;0.50;;;21.30;44.90;;;;;;4999521;28;20417;-68
2021/05/07 05:43:50;;;;;;;3.80;1.00;;;21.30;44.80;;;;;;4999988;28;20467;-69
2021/05/07 05:46:16;;;;;;;0.50;0.50;;;21.30;44.70;;;;;;4999226;28;21116;-68
2021/05/07 05:48:43;;;;;;;0.70;0.50;;;21.30;44.80;;;;;;4999836;28;20515;-68
2021/05/07 05:51:09;;;;;;;0.80;0.50;;;21.30;45.20;;;;;;4992863;28;20424;-70
2021/05/07 05:53:36;;;;;;;1.52;1.00;;;21.30;45.20;;;;;;4998927;28;20435;-70
2021/05/07 05:56:03;;;;;;;0.60;0.60;;;21.20;45.10;;;;;;4991578;28;20437;-69
2021/05/07 05:58:31;;;;;;;0.50;0.50;;;21.30;45.20;;;;;;4997119;28;20495;-69
2021/05/07 06:00:57;;;;;;;0.70;0.55;;;21.20;45.20;;;;;;4997563;28;20534;-68
2021/05/07 06:03:23;;;;;;;0.60;0.50;;;21.20;45.10;;;;;;4999630;28;20432;-68
2021/05/07 06:05:49;;;;;;;1.00;0.53;;;21.20;45.30;;;;;;4996351;28;20433;-69
2021/05/07 06:08:15;;;;;;;0.70;0.60;;;21.20;45.20;;;;;;4990508;28;20891;-67
2021/05/07 06:10:42;;;;;;;1.55;0.50;;;21.20;45.30;;;;;;4980079;28;20428;-73
2021/05/07 06:13:09;;;;;;;0.60;0.50;;;21.20;45.10;;;;;;4994057;28;20419;-69
2021/05/07 06:15:35;;;;;;;0.60;0.60;;;21.20;45.30;;;;;;4971505;28;20436;-71
2021/05/07 06:18:01;;;;;;;1.10;0.60;;;21.30;45.20;;;;;;4975384;28;20418;-70
2021/05/07 06:20:27;;;;;;;0.70;0.70;;;21.30;45.10;;;;;;4998150;28;20447;-72
2021/05/07 06:22:53;;;;;;;0.60;0.60;;;21.30;45.00;;;;;;4998504;28;20421;-69
2021/05/07 06:25:21;;;;;;;0.57;0.50;;;21.40;45.00;;;;;;4992324;28;20421;-71
2021/05/07 06:27:48;;;;;;;0.82;0.60;;;21.40;45.00;;;;;;4984956;28;20449;-70
2021/05/07 06:30:15;;;;;;;0.88;0.70;;;21.30;44.90;;;;;;4993293;28;20885;-68
2021/05/07 06:32:41;;;;;;;0.60;0.50;;;21.30;44.80;;;;;;4993782;28;20424;-70
2021/05/07 06:35:08;;;;;;;0.60;0.60;;;21.30;45.00;;;;;;4990999;28;20425;-68
2021/05/07 06:37:34;;;;;;;2.20;0.70;;;21.30;45.10;;;;;;5011080;28;21071;-70
2021/05/07 06:40:00;;;;;;;0.70;0.60;;;21.30;45.20;;;;;;4986197;28;20440;-71
2021/05/07 06:42:27;;;;;;;0.95;0.70;;;21.30;45.10;;;;;;5011793;28;20412;-69
2021/05/07 06:44:54;;;;;;;1.00;0.50;;;21.30;45.10;;;;;;4999199;28;20448;-68
2021/05/07 06:47:20;;;;;;;0.70;0.60;;;21.30;44.80;;;;;;4995175;28;20495;-69
2021/05/07 06:49:46;;;;;;;0.50;0.50;;;21.30;44.80;;;;;;4996115;28;20472;-69
2021/05/07 06:52:12;;;;;;;0.50;0.50;;;21.30;44.90;;;;;;4998244;28;20777;-67
2021/05/07 06:54:39;;;;;;;0.50;0.50;;;21.30;45.00;;;;;;4997663;28;20446;-67
2021/05/07 06:57:05;;;;;;;0.80;0.52;;;21.30;44.90;;;;;;4997390;28;20437;-68
2021/05/07 06:59:31;;;;;;;0.60;0.60;;;21.30;45.00;;;;;;4993624;28;20431;-69
2021/05/07 07:01:59;;;;;;;0.50;0.50;;;21.20;45.00;;;;;;5005344;28;20432;-69
2021/05/07 07:04:25;;;;;;;1.10;0.60;;;21.20;45.10;;;;;;4997737;28;20459;-69
2021/05/07 07:06:52;;;;;;;0.70;0.50;;;21.20;45.00;;;;;;4998614;28;20470;-70
2021/05/07 07:09:18;;;;;;;0.50;0.50;;;21.30;45.20;;;;;;4972726;28;20428;-71
2021/05/07 07:11:44;;;;;;;0.60;0.60;;;21.30;45.10;;;;;;4983467;28;20454;-69
2021/05/07 07:14:10;;;;;;;0.43;0.43;;;21.30;45.00;;;;;;4991437;28;20426;-68
2021/05/07 07:16:36;;;;;;;0.50;0.50;;;21.30;45.00;;;;;;4971926;28;20755;-68
2021/05/07 07:19:04;;;;;;;0.60;0.60;;;21.30;44.80;;;;;;4990264;28;20425;-68
2021/05/07 07:21:30;;;;;;;1.27;0.57;;;21.30;45.10;;;;;;5008128;28;20421;-70
2021/05/07 07:23:56;;;;;;;0.57;0.57;;;21.20;45.10;;;;;;5000860;28;20493;-68
2021/05/07 07:26:22;;;;;;;0.80;0.52;;;21.20;45.10;;;;;;4999311;28;20447;-69
2021/05/07 07:28:52;;;;;;;0.53;0.50;;;21.20;45.10;;;;;;4992408;28;20426;-70
2021/05/07 07:31:18;;;;;;;0.70;0.50;;;21.20;45.10;;;;;;5001505;28;20578;-69
2021/05/07 07:33:45;;;;;;;0.50;0.50;;;21.10;45.20;;;;;;4989768;28;20994;-69
2021/05/07 07:36:12;;;;;;;0.65;0.60;;;21.10;45.20;;;;;;4994182;28;20413;-69
2021/05/07 07:38:38;;;;;;;0.93;0.65;;;21.10;45.30;;;;;;4996613;28;20417;-70
2021/05/07 07:41:04;;;;;;;0.57;0.57;;;21.10;45.40;;;;;;4994377;28;20426;-69
2021/05/07 07:43:30;;;;;;;0.50;0.50;;;21.10;45.40;;;;;;4987737;28;20420;-69
2021/05/07 07:45:56;;;;;;;0.50;0.50;;;21.10;45.30;;;;;;4985895;28;20428;-70
2021/05/07 07:48:22;;;;;;;0.50;0.50;;;21.10;45.30;;;;;;4993480;28;21544;-69
2021/05/07 07:50:48;;;;;;;0.90;0.60;;;21.10;45.30;;;;;;4999137;28;20440;-69
2021/05/07 07:53:15;;;;;;;1.70;0.80;;;21.10;45.40;;;;;;4992668;28;20408;-69
2021/05/07 07:55:41;;;;;;;0.50;0.40;;;21.10;45.30;;;;;;4992009;28;20962;-69
2021/05/07 07:58:08;;;;;;;0.57;0.50;;;21.10;45.30;;;;;;4996624;28;21133;-69
2021/05/07 08:00:34;;;;;;;0.50;0.50;;;21.10;45.40;;;;;;4988534;28;20790;-71
2021/05/07 08:03:00;;;;;;;0.60;0.60;;;21.10;45.40;;;;;;4993731;28;20408;-70
2021/05/07 08:05:26;;;;;;;0.50;0.40;;;21.20;45.40;;;;;;4992150;28;20433;-69
2021/05/07 08:07:57;;;;;;;1.02;0.50;;;21.20;45.30;;;;;;4992070;28;20928;-69
2021/05/07 08:10:24;;;;;;;0.80;0.40;;;21.20;45.40;;;;;;4994207;28;21447;-70
2021/05/07 08:12:50;;;;;;;1.40;0.73;;;21.20;45.50;;;;;;4962142;28;20507;-70
2021/05/07 08:15:16;;;;;;;0.90;0.60;;;21.20;45.50;;;;;;4989546;28;20475;-72
2021/05/07 08:17:42;;;;;;;0.40;0.40;;;21.10;45.50;;;;;;4961277;28;20430;-68
2021/05/07 08:20:10;;;;;;;1.27;0.70;;;21.10;45.60;;;;;;4978916;28;20427;-68
2021/05/07 08:22:36;;;;;;;0.60;0.60;;;21.10;45.70;;;;;;4993573;28;20420;-68
2021/05/07 08:25:03;;;;;;;1.70;0.50;;;21.00;45.80;;;;;;4997247;28;20437;-68
2021/05/07 08:27:30;;;;;;;1.00;0.60;;;21.00;45.70;;;;;;4973418;28;20417;-68
2021/05/07 08:29:56;;;;;;;0.70;0.50;;;21.10;45.70;;;;;;4986798;28;20923;-73
2021/05/07 08:32:22;;;;;;;0.50;0.50;;;21.10;45.80;;;;;;4996914;28;21990;-70
2021/05/07 08:34:48;;;;;;;0.60;0.40;;;21.10;45.60;;;;;;4995960;28;20490;-70
2021/05/07 08:37:15;;;;;;;0.80;0.70;;;21.00;45.60;;;;;;4979788;28;20797;-69
2021/05/07 08:39:41;;;;;;;1.00;0.50;;;21.10;45.80;;;;;;4987824;28;20442;-67
2021/05/07 08:42:09;;;;;;;0.50;0.50;;;21.00;45.70;;;;;;4987706;28;20407;-68
2021/05/07 08:44:36;;;;;;;0.60;0.50;;;21.10;45.70;;;;;;4987646;28;20414;-69
2021/05/07 08:47:02;;;;;;;0.50;0.50;;;21.10;45.60;;;;;;4994937;28;20409;-69
2021/05/07 08:49:29;;;;;;;0.43;0.43;;;21.10;45.60;;;;;;4979662;28;20787;-68
2021/05/07 08:51:55;;;;;;;0.90;0.60;;;21.10;45.70;;;;;;4984054;28;20419;-66
2021/05/07 08:54:21;;;;;;;0.50;0.40;;;21.10;45.60;;;;;;4999194;28;20560;-68
2021/05/07 08:56:47;;;;;;;0.50;0.50;;;21.10;45.60;;;;;;4995096;28;20428;-69
2021/05/07 08:59:14;;;;;;;0.70;0.40;;;21.10;45.60;;;;;;5000646;28;20416;-69
2021/05/07 09:01:42;;;;;;;0.57;0.40;;;21.20;45.60;;;;;;4963880;28;20478;-67
2021/05/07 09:04:09;;;;;;;0.50;0.50;;;21.10;45.50;;;;;;4978237;28;20428;-71
2021/05/07 09:06:39;;;;;;;0.50;0.47;;;21.10;45.50;;;;;;4986750;28;20779;-69
2021/05/07 09:09:15;;;;;;;0.57;0.50;;;21.10;45.60;;;;;;4974552;28;20915;-68
2021/05/07 09:11:42;;;;;;;0.50;0.45;;;21.10;45.50;;;;;;4968964;28;20436;-69
2021/05/07 09:14:08;;;;;;;0.60;0.40;;;21.10;45.60;;;;;;4988955;28;20417;-70
2021/05/07 09:16:34;;;;;;;0.70;0.50;;;21.20;45.60;;;;;;4995716;28;20913;-68
2021/05/07 09:19:01;;;;;;;0.47;0.47;;;21.20;45.60;;;;;;4996707;28;21073;-69
2021/05/07 09:21:27;;;;;;;0.40;0.40;;;21.20;45.60;;;;;;4988994;28;20933;-70
2021/05/07 09:23:53;;;;;;;0.50;0.40;;;21.20;46.30;;;;;;4986277;28;21198;-71
2021/05/07 09:26:20;;;;;;;1.02;0.50;;;21.20;45.30;;;;;;4991468;28;20416;-71
2021/05/07 09:28:55;;;;;;;0.60;0.40;;;21.20;45.50;;;;;;4985174;28;20431;-71
2021/05/07 09:31:23;;;;;;;0.60;0.50;;;21.20;45.30;;;;;;4991388;28;21573;-68
2021/05/07 09:33:49;;;;;;;0.60;0.60;;;21.20;45.50;;;;;;5000149;28;20417;-68
2021/05/07 09:36:22;;;;;;;0.57;0.50;;;21.10;45.50;;;;;;4990342;28;20426;-69
2021/05/07 09:38:49;;;;;;;0.50;0.50;;;21.10;45.70;;;;;;4974336;28;20461;-71
2021/05/07 09:41:15;;;;;;;1.30;0.60;;;21.10;45.60;;;;;;4989686;28;20440;-71
2021/05/07 09:43:41;;;;;;;0.50;0.40;;;21.10;45.50;;;;;;4991423;28;20435;-71
2021/05/07 09:46:07;;;;;;;0.90;0.50;;;21.10;45.40;;;;;;5001184;28;20439;-72
2021/05/07 09:48:33;;;;;;;1.00;0.50;;;21.10;45.50;;;;;;5000355;28;20429;-71
2021/05/07 09:51:01;;;;;;;0.50;0.47;;;21.10;45.50;;;;;;4997905;28;21548;-69
2021/05/07 09:53:30;;;;;;;0.50;0.50;;;21.10;45.50;;;;;;4998581;28;20428;-68
2021/05/07 09:56:00;;;;;;;0.88;0.70;;;21.10;45.40;;;;;;4996243;28;20406;-68
2021/05/07 09:58:26;;;;;;;0.65;0.50;;;21.00;45.30;;;;;;4996088;28;20436;-71
2021/05/07 10:00:55;;;;;;;0.40;0.40;;;21.10;45.50;;;;;;4997643;28;20438;-70
2021/05/07 10:03:21;;;;;;;1.42;0.40;;;21.10;45.50;;;;;;5000031;28;20412;-68
2021/05/07 10:05:47;;;;;;;0.60;0.60;;;21.10;45.50;;;;;;4996321;28;20425;-68
2021/05/07 10:08:14;;;;;;;1.40;0.60;;;21.10;45.40;;;;;;4987551;28;20430;-68
2021/05/07 10:10:42;;;;;;;0.80;0.40;;;21.10;45.40;;;;;;4981715;28;20430;-67
2021/05/07 10:13:09;;;;;;;1.27;0.55;;;21.10;45.40;;;;;;5001839;28;20451;-69
2021/05/07 10:15:36;;;;;;;0.68;0.40;;;21.10;45.40;;;;;;4997623;28;20459;-68
2021/05/07 10:18:03;;;;;;;1.10;0.70;;;21.10;45.30;;;;;;4997267;28;20419;-71
2021/05/07 10:20:30;;;;;;;0.50;0.50;;;21.10;45.40;;;;;;4989967;28;20470;-68
2021/05/07 10:22:56;;;;;;;0.60;0.60;;;21.10;45.40;;;;;;4998875;28;20550;-70
2021/05/07 10:25:23;;;;;;;0.50;0.50;;;21.10;45.40;;;;;;4997315;28;20419;-69
2021/05/07 10:27:52;;;;;;;0.50;0.50;;;21.10;45.40;;;;;;4981651;28;20447;-70
2021/05/07 10:30:29;;;;;;;1.42;0.50;;;21.10;45.40;;;;;;4999636;28;20530;-70
2021/05/07 10:33:03;;;;;;;0.60;0.47;;;21.20;45.40;;;;;;4980347;28;20913;-67
2021/05/07 10:35:31;;;;;;;0.80;0.65;;;21.20;45.30;;;;;;4997275;28;20426;-68
2021/05/07 10:38:06;;;;;;;0.50;0.50;;;21.20;45.30;;;;;;5006274;28;20418;-70
2021/05/07 10:40:32;;;;;;;2.50;0.50;;;21.20;45.30;;;;;;5003904;28;20409;-70
2021/05/07 10:43:00;;;;;;;0.70;0.50;;;21.20;45.30;;;;;;4991135;28;20462;-68
2021/05/07 10:45:42;;;;;;;1.00;0.60;;;21.20;45.20;;;;;;5002556;28;20417;-69
2021/05/07 10:48:16;;;;;;;0.70;0.57;;;21.20;45.20;;;;;;4975482;28;20466;-69
2021/05/07 10:50:43;;;;;;;1.40;0.60;;;21.20;45.30;;;;;;5001366;28;20413;-70
2021/05/07 10:53:09;;;;;;;0.60;0.60;;;21.10;45.00;;;;;;4995875;28;20428;-69
2021/05/07 10:55:35;;;;;;;0.40;0.40;;;21.10;45.10;;;;;;4993773;28;20537;-71
2021/05/07 10:58:04;;;;;;;0.50;0.50;;;21.10;45.30;;;;;;5003332;28;20511;-69
2021/05/07 11:00:33;;;;;;;0.65;0.50;;;21.10;45.40;;;;;;4992017;28;20437;-71
2021/05/07 11:02:59;;;;;;;1.00;0.60;;;21.10;45.40;;;;;;4988063;28;20415;-68
2021/05/07 11:05:36;;;;;;;0.80;0.50;;;21.10;45.30;;;;;;4988706;28;20913;-67
2021/05/07 11:08:02;;;;;;;0.70;0.50;;;21.10;45.20;;;;;;4989126;28;20415;-69
2021/05/07 11:10:28;;;;;;;1.17;0.50;;;21.10;45.30;;;;;;4993252;28;20437;-71
2021/05/07 11:12:54;;;;;;;0.85;0.70;;;21.00;45.20;;;;;;4973317;28;20455;-69
2021/05/07 11:15:21;;;;;;;1.10;0.45;;;21.10;45.30;;;;;;4995991;28;20486;-69
2021/05/07 11:17:57;;;;;;;0.85;0.40;;;21.10;45.10;;;;;;4995425;28;20500;-72
2021/05/07 11:20:30;;;;;;;0.70;0.50;;;21.10;45.10;;;;;;4994888;28;20408;-70
2021/05/07 11:22:57;;;;;;;0.60;0.50;;;21.10;45.10;;;;;;4984821;28;20411;-68
2021/05/07 11:25:23;;;;;;;0.60;0.50;;;21.10;45.00;;;;;;4997020;28;20546;-67
2021/05/07 11:27:49;;;;;;;0.50;0.50;;;21.10;45.00;;;;;;4993355;28;20413;-69
2021/05/07 11:30:17;;;;;;;0.60;0.60;;;21.10;44.90;;;;;;4985647;28;20526;-69
2021/05/07 11:32:44;;;;;;;0.80;0.50;;;21.10;44.90;;;;;;4985610;28;20417;-69
2021/05/07 11:35:11;;;;;;;0.60;0.50;;;21.10;44.90;;;;;;4997516;28;20429;-68
2021/05/07 11:37:41;;;;;;;0.52;0.52;;;21.10;45.00;;;;;;4987147;28;20428;-74
2021/05/07 11:40:08;;;;;;;0.50;0.50;;;21.00;44.90;;;;;;5006911;28;20441;-70
2021/05/07 11:42:35;;;;;;;0.50;0.50;;;21.00;44.90;;;;;;4996690;28;20898;-69
2021/05/07 11:45:02;;;;;;;0.50;0.50;;;21.00;44.90;;;;;;4997340;28;21117;-69
2021/05/07 11:47:29;;;;;;;1.23;0.70;;;21.00;44.90;;;;;;4996156;28;20420;-69
2021/05/07 11:49:56;;;;;;;0.87;0.40;;;21.00;44.90;;;;;;4996424;28;20547;-72
2021/05/07 11:52:32;;;;;;;0.60;0.60;;;21.00;45.00;;;;;;4992719;28;21466;-70
2021/05/07 11:54:58;;;;;;;0.60;0.50;;;21.00;44.70;;;;;;5001896;28;20428;-71
2021/05/07 11:57:24;;;;;;;0.50;0.50;;;21.10;44.70;;;;;;4988955;28;20421;-68
2021/05/07 11:59:51;;;;;;;0.43;0.40;;;21.10;44.60;;;;;;4984901;28;21244;-68
2021/05/07 12:02:21;;;;;;;0.90;0.70;;;21.10;44.50;;;;;;4983120;28;20416;-71
2021/05/07 12:04:47;;;;;;;0.98;0.60;;;21.20;44.40;;;;;;4986435;28;20420;-70
2021/05/07 12:07:29;;;;;;;0.70;0.60;;;21.20;44.30;;;;;;4985482;28;20435;-70
2021/05/07 12:09:56;;;;;;;0.70;0.60;;;21.20;44.30;;;;;;4988583;28;20436;-69
2021/05/07 12:12:22;;;;;;;1.05;0.50;;;21.20;44.30;;;;;;4984530;28;20781;-67
2021/05/07 12:14:49;;;;;;;0.50;0.50;;;21.20;44.50;;;;;;4986229;28;20449;-68
2021/05/07 12:17:19;;;;;;;1.20;0.50;;;21.20;44.40;;;;;;4994547;28;20791;-71
2021/05/07 12:19:57;;;;;;;0.90;0.60;;;21.30;44.30;;;;;;5001416;28;20416;-70
2021/05/07 12:22:23;;;;;;;0.50;0.50;;;21.30;44.20;;;;;;4990927;28;20438;-69
2021/05/07 12:24:50;;;;;;;0.60;0.50;;;21.40;44.10;;;;;;4998746;28;20431;-69
2021/05/07 12:27:26;;;;;;;1.60;0.50;;;21.40;44.10;;;;;;4982147;28;20451;-70
2021/05/07 12:29:52;;;;;;;1.83;0.45;;;21.40;44.00;;;;;;4992504;28;21020;-68
2021/05/07 12:32:21;;;;;;;1.35;0.60;;;21.40;44.10;;;;;;4994153;28;20419;-73
2021/05/07 12:34:54;;;;;;;0.60;0.60;;;21.40;44.10;;;;;;5001926;28;20917;-68
2021/05/07 12:37:20;;;;;;;1.60;0.52;;;21.40;44.30;;;;;;4994483;28;20983;-69
2021/05/07 12:39:47;;;;;;;0.80;0.50;;;21.30;44.20;;;;;;4996357;28;21184;-69
2021/05/07 12:42:14;;;;;;;1.70;0.50;;;21.30;44.40;;;;;;4995623;28;20962;-72
2021/05/07 12:44:44;;;;;;;0.50;0.50;;;21.30;44.40;;;;;;4995602;28;21073;-68
2021/05/07 12:47:11;;;;;;;0.60;0.60;;;21.30;44.40;;;;;;4993716;28;20412;-67